sensor_id;sensor_type;location;lat;lon;timestamp;P1;durP1;ratioP1;P2;durP2;ratioP2
69260;SDS011;56378;52.404;20.816;2023-01-05T00:01:16;12.77;;;7.63;;
69260;SDS011;56378;52.404;20.816;2023-01-05T00:03:42;15.63;;;8.05;;
69260;SDS011;56378;52.404;20.816;2023-01-05T00:06:12;14.07;;;7.90;;
69260;SDS011;56378;52.404;20.816;2023-01-05T00:08:39;14.05;;;8.40;;
69260;SDS011;56378;52.404;20.816;2023-01-05T00:11:09;15.00;;;8.10;;
69260;SDS011;56378;52.404;20.816;2023-01-05T00:13:55;13.20;;;7.80;;
69260;SDS011;56378;52.404;20.816;2023-01-05T00:16:40;15.60;;;8.63;;
69260;SDS011;56378;52.404;20.816;2023-01-05T00:19:24;14.77;;;8.80;;
69260;SDS011;56378;52.404;20.816;2023-01-05T00:22:15;15.02;;;8.63;;
69260;SDS011;56378;52.404;20.816;2023-01-05T00:24:55;13.50;;;8.48;;
69260;SDS011;56378;52.404;20.816;2023-01-05T00:27:27;13.07;;;7.72;;
69260;SDS011;56378;52.404;20.816;2023-01-05T00:29:54;15.15;;;8.57;;
69260;SDS011;56378;52.404;20.816;2023-01-05T00:32:20;14.77;;;8.33;;
69260;SDS011;56378;52.404;20.816;2023-01-05T00:34:45;12.80;;;7.78;;
69260;SDS011;56378;52.404;20.816;2023-01-05T00:37:11;12.50;;;7.43;;
69260;SDS011;56378;52.404;20.816;2023-01-05T00:39:37;14.82;;;8.00;;
69260;SDS011;56378;52.404;20.816;2023-01-05T00:42:03;13.63;;;7.73;;
69260;SDS011;56378;52.404;20.816;2023-01-05T00:44:28;13.05;;;7.60;;
69260;SDS011;56378;52.404;20.816;2023-01-05T00:46:54;12.20;;;7.73;;
69260;SDS011;56378;52.404;20.816;2023-01-05T00:49:20;12.35;;;7.47;;
69260;SDS011;56378;52.404;20.816;2023-01-05T00:51:46;12.82;;;7.25;;
69260;SDS011;56378;52.404;20.816;2023-01-05T00:54:11;14.03;;;6.87;;
69260;SDS011;56378;52.404;20.816;2023-01-05T00:56:37;13.87;;;7.37;;
69260;SDS011;56378;52.404;20.816;2023-01-05T00:59:03;13.70;;;7.20;;
69260;SDS011;56378;52.404;20.816;2023-01-05T01:01:29;12.88;;;6.78;;
69260;SDS011;56378;52.404;20.816;2023-01-05T01:03:54;11.53;;;6.77;;
69260;SDS011;56378;52.404;20.816;2023-01-05T01:06:20;11.50;;;6.60;;
69260;SDS011;56378;52.404;20.816;2023-01-05T01:08:47;13.85;;;6.70;;
69260;SDS011;56378;52.404;20.816;2023-01-05T01:11:12;11.20;;;6.40;;
69260;SDS011;56378;52.404;20.816;2023-01-05T01:13:40;12.32;;;6.50;;
69260;SDS011;56378;52.404;20.816;2023-01-05T01:16:08;11.43;;;6.60;;
69260;SDS011;56378;52.404;20.816;2023-01-05T01:18:36;10.98;;;5.75;;
69260;SDS011;56378;52.404;20.816;2023-01-05T01:21:01;12.07;;;6.20;;
69260;SDS011;56378;52.404;20.816;2023-01-05T01:23:28;8.98;;;5.68;;
69260;SDS011;56378;52.404;20.816;2023-01-05T01:25:54;9.90;;;5.20;;
69260;SDS011;56378;52.404;20.816;2023-01-05T01:28:20;10.63;;;5.23;;
69260;SDS011;56378;52.404;20.816;2023-01-05T01:30:47;8.20;;;4.55;;
69260;SDS011;56378;52.404;20.816;2023-01-05T01:33:13;7.35;;;4.30;;
69260;SDS011;56378;52.404;20.816;2023-01-05T01:35:38;9.80;;;4.70;;
69260;SDS011;56378;52.404;20.816;2023-01-05T01:38:04;10.77;;;4.65;;
69260;SDS011;56378;52.404;20.816;2023-01-05T01:40:30;7.80;;;4.07;;
69260;SDS011;56378;52.404;20.816;2023-01-05T01:43:18;8.75;;;4.25;;
69260;SDS011;56378;52.404;20.816;2023-01-05T01:46:02;8.00;;;3.95;;
69260;SDS011;56378;52.404;20.816;2023-01-05T01:48:28;7.27;;;3.73;;
69260;SDS011;56378;52.404;20.816;2023-01-05T01:50:53;8.57;;;3.78;;
69260;SDS011;56378;52.404;20.816;2023-01-05T01:53:23;7.05;;;3.63;;
69260;SDS011;56378;52.404;20.816;2023-01-05T01:55:53;6.63;;;3.60;;
69260;SDS011;56378;52.404;20.816;2023-01-05T01:58:22;8.50;;;4.40;;
69260;SDS011;56378;52.404;20.816;2023-01-05T02:00:52;7.45;;;4.00;;
69260;SDS011;56378;52.404;20.816;2023-01-05T02:03:18;7.60;;;3.90;;
69260;SDS011;56378;52.404;20.816;2023-01-05T02:05:44;7.57;;;4.27;;
69260;SDS011;56378;52.404;20.816;2023-01-05T02:08:11;8.15;;;4.00;;
69260;SDS011;56378;52.404;20.816;2023-01-05T02:10:44;7.00;;;3.90;;
69260;SDS011;56378;52.404;20.816;2023-01-05T02:24:31;7.10;;;4.35;;
69260;SDS011;56378;52.404;20.816;2023-01-05T02:27:37;8.57;;;4.28;;
69260;SDS011;56378;52.404;20.816;2023-01-05T02:33:12;8.73;;;4.75;;
69260;SDS011;56378;52.404;20.816;2023-01-05T02:38:46;8.02;;;5.03;;
69260;SDS011;56378;52.404;20.816;2023-01-05T02:41:40;8.70;;;5.20;;
69260;SDS011;56378;52.404;20.816;2023-01-05T02:44:08;9.57;;;5.50;;
69260;SDS011;56378;52.404;20.816;2023-01-05T02:46:34;8.43;;;5.07;;
69260;SDS011;56378;52.404;20.816;2023-01-05T02:49:00;9.10;;;5.43;;
69260;SDS011;56378;52.404;20.816;2023-01-05T02:51:36;10.40;;;5.70;;
69260;SDS011;56378;52.404;20.816;2023-01-05T02:54:07;9.83;;;5.60;;
69260;SDS011;56378;52.404;20.816;2023-01-05T02:56:47;9.52;;;5.50;;
69260;SDS011;56378;52.404;20.816;2023-01-05T02:59:23;8.50;;;5.45;;
69260;SDS011;56378;52.404;20.816;2023-01-05T03:01:55;10.15;;;5.60;;
69260;SDS011;56378;52.404;20.816;2023-01-05T03:04:27;8.52;;;5.40;;
69260;SDS011;56378;52.404;20.816;2023-01-05T03:07:02;9.73;;;5.57;;
69260;SDS011;56378;52.404;20.816;2023-01-05T03:09:30;10.45;;;5.85;;
69260;SDS011;56378;52.404;20.816;2023-01-05T03:14:54;10.35;;;5.80;;
69260;SDS011;56378;52.404;20.816;2023-01-05T03:17:35;11.52;;;6.40;;
69260;SDS011;56378;52.404;20.816;2023-01-05T03:20:05;9.67;;;6.37;;
69260;SDS011;56378;52.404;20.816;2023-01-05T03:22:32;12.20;;;7.00;;
69260;SDS011;56378;52.404;20.816;2023-01-05T03:25:20;10.20;;;5.95;;
69260;SDS011;56378;52.404;20.816;2023-01-05T03:28:08;11.65;;;6.38;;
69260;SDS011;56378;52.404;20.816;2023-01-05T03:30:58;10.48;;;6.15;;
69260;SDS011;56378;52.404;20.816;2023-01-05T03:34:16;9.37;;;5.97;;
69260;SDS011;56378;52.404;20.816;2023-01-05T03:37:25;11.65;;;6.22;;
69260;SDS011;56378;52.404;20.816;2023-01-05T03:39:55;8.77;;;5.47;;
69260;SDS011;56378;52.404;20.816;2023-01-05T03:42:21;8.88;;;5.40;;
69260;SDS011;56378;52.404;20.816;2023-01-05T03:44:47;9.67;;;5.57;;
69260;SDS011;56378;52.404;20.816;2023-01-05T03:47:14;8.85;;;5.20;;
69260;SDS011;56378;52.404;20.816;2023-01-05T03:49:39;9.23;;;5.18;;
69260;SDS011;56378;52.404;20.816;2023-01-05T03:52:05;8.85;;;5.13;;
69260;SDS011;56378;52.404;20.816;2023-01-05T03:54:31;9.93;;;5.77;;
69260;SDS011;56378;52.404;20.816;2023-01-05T03:56:57;10.00;;;5.90;;
69260;SDS011;56378;52.404;20.816;2023-01-05T03:59:22;12.27;;;6.90;;
69260;SDS011;56378;52.404;20.816;2023-01-05T04:01:48;16.30;;;9.37;;
69260;SDS011;56378;52.404;20.816;2023-01-05T04:04:14;9.00;;;5.22;;
69260;SDS011;56378;52.404;20.816;2023-01-05T04:06:39;8.13;;;4.70;;
69260;SDS011;56378;52.404;20.816;2023-01-05T04:09:05;9.57;;;5.10;;
69260;SDS011;56378;52.404;20.816;2023-01-05T04:11:31;9.63;;;4.47;;
69260;SDS011;56378;52.404;20.816;2023-01-05T04:13:56;10.40;;;5.13;;
69260;SDS011;56378;52.404;20.816;2023-01-05T04:16:22;6.77;;;3.57;;
69260;SDS011;56378;52.404;20.816;2023-01-05T04:18:48;6.18;;;3.08;;
69260;SDS011;56378;52.404;20.816;2023-01-05T04:21:14;6.63;;;2.80;;
69260;SDS011;56378;52.404;20.816;2023-01-05T04:23:40;5.37;;;2.97;;
69260;SDS011;56378;52.404;20.816;2023-01-05T04:26:05;8.27;;;3.60;;
69260;SDS011;56378;52.404;20.816;2023-01-05T04:28:31;6.15;;;2.80;;
69260;SDS011;56378;52.404;20.816;2023-01-05T04:30:57;11.07;;;5.25;;
69260;SDS011;56378;52.404;20.816;2023-01-05T04:33:23;7.03;;;4.03;;
69260;SDS011;56378;52.404;20.816;2023-01-05T04:35:49;10.27;;;5.22;;
69260;SDS011;56378;52.404;20.816;2023-01-05T04:38:16;12.18;;;5.05;;
69260;SDS011;56378;52.404;20.816;2023-01-05T04:40:46;9.40;;;3.35;;
69260;SDS011;56378;52.404;20.816;2023-01-05T04:43:13;6.43;;;3.05;;
69260;SDS011;56378;52.404;20.816;2023-01-05T04:45:38;4.87;;;2.40;;
69260;SDS011;56378;52.404;20.816;2023-01-05T04:48:04;5.97;;;2.57;;
69260;SDS011;56378;52.404;20.816;2023-01-05T04:50:30;9.00;;;4.40;;
69260;SDS011;56378;52.404;20.816;2023-01-05T04:52:55;6.78;;;2.65;;
69260;SDS011;56378;52.404;20.816;2023-01-05T04:55:21;3.60;;;1.20;;
69260;SDS011;56378;52.404;20.816;2023-01-05T04:57:47;8.77;;;4.13;;
69260;SDS011;56378;52.404;20.816;2023-01-05T05:00:13;20.77;;;8.57;;
69260;SDS011;56378;52.404;20.816;2023-01-05T05:02:39;8.40;;;3.75;;
69260;SDS011;56378;52.404;20.816;2023-01-05T05:05:04;9.07;;;3.20;;
69260;SDS011;56378;52.404;20.816;2023-01-05T05:07:30;5.63;;;2.17;;
69260;SDS011;56378;52.404;20.816;2023-01-05T05:09:56;12.90;;;4.30;;
69260;SDS011;56378;52.404;20.816;2023-01-05T05:12:22;12.70;;;4.17;;
69260;SDS011;56378;52.404;20.816;2023-01-05T05:14:47;5.23;;;2.10;;
69260;SDS011;56378;52.404;20.816;2023-01-05T05:17:14;3.42;;;1.50;;
69260;SDS011;56378;52.404;20.816;2023-01-05T05:19:40;5.97;;;2.22;;
69260;SDS011;56378;52.404;20.816;2023-01-05T05:22:06;5.95;;;2.15;;
69260;SDS011;56378;52.404;20.816;2023-01-05T05:24:32;4.90;;;1.70;;
69260;SDS011;56378;52.404;20.816;2023-01-05T05:26:57;5.65;;;2.10;;
69260;SDS011;56378;52.404;20.816;2023-01-05T05:29:23;5.20;;;1.87;;
69260;SDS011;56378;52.404;20.816;2023-01-05T05:31:49;4.82;;;1.83;;
69260;SDS011;56378;52.404;20.816;2023-01-05T05:34:16;5.85;;;2.00;;
69260;SDS011;56378;52.404;20.816;2023-01-05T05:36:42;4.35;;;1.77;;
69260;SDS011;56378;52.404;20.816;2023-01-05T05:39:11;4.43;;;2.00;;
69260;SDS011;56378;52.404;20.816;2023-01-05T05:41:38;5.72;;;2.10;;
69260;SDS011;56378;52.404;20.816;2023-01-05T05:44:04;4.57;;;1.77;;
69260;SDS011;56378;52.404;20.816;2023-01-05T05:46:30;3.57;;;1.50;;
69260;SDS011;56378;52.404;20.816;2023-01-05T05:48:56;3.90;;;1.60;;
69260;SDS011;56378;52.404;20.816;2023-01-05T05:51:23;4.32;;;1.60;;
69260;SDS011;56378;52.404;20.816;2023-01-05T05:53:49;6.75;;;1.80;;
69260;SDS011;56378;52.404;20.816;2023-01-05T05:56:15;5.23;;;1.77;;
69260;SDS011;56378;52.404;20.816;2023-01-05T05:58:41;4.93;;;1.65;;
69260;SDS011;56378;52.404;20.816;2023-01-05T06:01:07;6.55;;;1.90;;
69260;SDS011;56378;52.404;20.816;2023-01-05T06:03:33;5.57;;;1.40;;
69260;SDS011;56378;52.404;20.816;2023-01-05T06:05:59;4.30;;;1.10;;
69260;SDS011;56378;52.404;20.816;2023-01-05T06:08:25;4.05;;;1.33;;
69260;SDS011;56378;52.404;20.816;2023-01-05T06:10:53;4.03;;;1.30;;
69260;SDS011;56378;52.404;20.816;2023-01-05T06:13:19;3.75;;;1.52;;
69260;SDS011;56378;52.404;20.816;2023-01-05T06:15:46;3.43;;;1.00;;
69260;SDS011;56378;52.404;20.816;2023-01-05T06:18:12;2.17;;;0.90;;
69260;SDS011;56378;52.404;20.816;2023-01-05T06:20:38;2.95;;;0.85;;
69260;SDS011;56378;52.404;20.816;2023-01-05T06:23:04;5.73;;;1.20;;
69260;SDS011;56378;52.404;20.816;2023-01-05T06:25:30;4.68;;;1.10;;
69260;SDS011;56378;52.404;20.816;2023-01-05T06:27:55;5.03;;;1.02;;
69260;SDS011;56378;52.404;20.816;2023-01-05T06:30:21;3.63;;;0.83;;
69260;SDS011;56378;52.404;20.816;2023-01-05T06:32:47;3.83;;;0.90;;
69260;SDS011;56378;52.404;20.816;2023-01-05T06:35:12;2.27;;;0.80;;
69260;SDS011;56378;52.404;20.816;2023-01-05T06:37:38;7.77;;;1.00;;
69260;SDS011;56378;52.404;20.816;2023-01-05T06:40:04;4.38;;;0.80;;
69260;SDS011;56378;52.404;20.816;2023-01-05T06:42:30;3.65;;;1.00;;
69260;SDS011;56378;52.404;20.816;2023-01-05T06:44:57;2.10;;;0.82;;
69260;SDS011;56378;52.404;20.816;2023-01-05T06:47:22;2.43;;;0.90;;
69260;SDS011;56378;52.404;20.816;2023-01-05T06:49:48;5.10;;;1.80;;
69260;SDS011;56378;52.404;20.816;2023-01-05T06:52:14;3.03;;;1.13;;
69260;SDS011;56378;52.404;20.816;2023-01-05T06:54:39;3.75;;;1.50;;
69260;SDS011;56378;52.404;20.816;2023-01-05T06:57:05;4.23;;;1.63;;
69260;SDS011;56378;52.404;20.816;2023-01-05T06:59:32;4.85;;;1.42;;
69260;SDS011;56378;52.404;20.816;2023-01-05T07:01:58;8.00;;;1.52;;
69260;SDS011;56378;52.404;20.816;2023-01-05T07:04:23;4.40;;;1.20;;
69260;SDS011;56378;52.404;20.816;2023-01-05T07:06:49;6.65;;;1.80;;
69260;SDS011;56378;52.404;20.816;2023-01-05T07:09:15;3.47;;;1.33;;
69260;SDS011;56378;52.404;20.816;2023-01-05T07:11:40;6.07;;;1.40;;
69260;SDS011;56378;52.404;20.816;2023-01-05T07:14:06;2.83;;;1.30;;
69260;SDS011;56378;52.404;20.816;2023-01-05T07:16:32;8.33;;;1.60;;
69260;SDS011;56378;52.404;20.816;2023-01-05T07:18:57;6.93;;;1.80;;
69260;SDS011;56378;52.404;20.816;2023-01-05T07:21:23;4.60;;;1.40;;
69260;SDS011;56378;52.404;20.816;2023-01-05T07:23:49;9.07;;;2.10;;
69260;SDS011;56378;52.404;20.816;2023-01-05T07:26:14;5.93;;;1.70;;
69260;SDS011;56378;52.404;20.816;2023-01-05T07:28:40;32.40;;;8.25;;
69260;SDS011;56378;52.404;20.816;2023-01-05T07:31:06;32.17;;;7.40;;
69260;SDS011;56378;52.404;20.816;2023-01-05T07:33:31;8.48;;;2.00;;
69260;SDS011;56378;52.404;20.816;2023-01-05T07:36:00;4.67;;;1.80;;
69260;SDS011;56378;52.404;20.816;2023-01-05T07:38:27;6.82;;;2.50;;
69260;SDS011;56378;52.404;20.816;2023-01-05T07:40:53;4.40;;;2.00;;
69260;SDS011;56378;52.404;20.816;2023-01-05T07:43:21;6.88;;;1.90;;
69260;SDS011;56378;52.404;20.816;2023-01-05T07:45:47;6.40;;;2.00;;
69260;SDS011;56378;52.404;20.816;2023-01-05T07:48:13;7.10;;;2.30;;
69260;SDS011;56378;52.404;20.816;2023-01-05T07:50:38;6.43;;;2.38;;
69260;SDS011;56378;52.404;20.816;2023-01-05T07:53:04;6.67;;;2.37;;
69260;SDS011;56378;52.404;20.816;2023-01-05T07:55:30;4.23;;;2.03;;
69260;SDS011;56378;52.404;20.816;2023-01-05T07:57:56;7.43;;;2.40;;
69260;SDS011;56378;52.404;20.816;2023-01-05T08:00:21;6.28;;;2.40;;
69260;SDS011;56378;52.404;20.816;2023-01-05T08:02:47;6.27;;;2.20;;
69260;SDS011;56378;52.404;20.816;2023-01-05T08:05:13;7.30;;;2.28;;
69260;SDS011;56378;52.404;20.816;2023-01-05T08:07:38;4.90;;;2.40;;
69260;SDS011;56378;52.404;20.816;2023-01-05T08:10:04;6.70;;;2.30;;
69260;SDS011;56378;52.404;20.816;2023-01-05T08:12:49;8.00;;;2.72;;
69260;SDS011;56378;52.404;20.816;2023-01-05T08:15:33;7.30;;;2.30;;
69260;SDS011;56378;52.404;20.816;2023-01-05T08:17:59;7.15;;;2.10;;
69260;SDS011;56378;52.404;20.816;2023-01-05T08:20:25;4.60;;;1.80;;
69260;SDS011;56378;52.404;20.816;2023-01-05T08:22:51;5.85;;;2.10;;
69260;SDS011;56378;52.404;20.816;2023-01-05T08:25:17;7.32;;;2.28;;
69260;SDS011;56378;52.404;20.816;2023-01-05T08:27:43;6.50;;;2.80;;
69260;SDS011;56378;52.404;20.816;2023-01-05T08:30:09;10.98;;;4.85;;
69260;SDS011;56378;52.404;20.816;2023-01-05T08:32:36;6.15;;;2.55;;
69260;SDS011;56378;52.404;20.816;2023-01-05T08:35:02;6.28;;;2.25;;
69260;SDS011;56378;52.404;20.816;2023-01-05T08:37:28;5.82;;;1.90;;
69260;SDS011;56378;52.404;20.816;2023-01-05T08:39:54;7.00;;;2.10;;
69260;SDS011;56378;52.404;20.816;2023-01-05T08:42:20;7.38;;;2.03;;
69260;SDS011;56378;52.404;20.816;2023-01-05T08:44:45;8.33;;;2.43;;
69260;SDS011;56378;52.404;20.816;2023-01-05T08:47:11;8.30;;;2.38;;
69260;SDS011;56378;52.404;20.816;2023-01-05T08:49:37;7.23;;;1.70;;
69260;SDS011;56378;52.404;20.816;2023-01-05T08:52:02;7.93;;;1.77;;
69260;SDS011;56378;52.404;20.816;2023-01-05T08:54:28;3.97;;;1.50;;
69260;SDS011;56378;52.404;20.816;2023-01-05T08:56:54;5.80;;;1.67;;
69260;SDS011;56378;52.404;20.816;2023-01-05T08:59:20;5.67;;;1.10;;
69260;SDS011;56378;52.404;20.816;2023-01-05T09:01:45;5.40;;;1.40;;
69260;SDS011;56378;52.404;20.816;2023-01-05T09:04:11;5.37;;;1.10;;
69260;SDS011;56378;52.404;20.816;2023-01-05T09:06:37;5.00;;;0.98;;
69260;SDS011;56378;52.404;20.816;2023-01-05T09:09:03;4.50;;;0.70;;
69260;SDS011;56378;52.404;20.816;2023-01-05T09:11:28;7.20;;;0.98;;
69260;SDS011;56378;52.404;20.816;2023-01-05T09:13:58;6.50;;;1.23;;
69260;SDS011;56378;52.404;20.816;2023-01-05T09:16:27;3.53;;;0.90;;
69260;SDS011;56378;52.404;20.816;2023-01-05T09:18:58;6.15;;;1.10;;
69260;SDS011;56378;52.404;20.816;2023-01-05T09:21:26;7.25;;;1.10;;
69260;SDS011;56378;52.404;20.816;2023-01-05T09:23:52;3.35;;;0.80;;
69260;SDS011;56378;52.404;20.816;2023-01-05T09:26:18;4.43;;;1.00;;
69260;SDS011;56378;52.404;20.816;2023-01-05T09:28:44;4.47;;;0.85;;
69260;SDS011;56378;52.404;20.816;2023-01-05T09:31:18;5.32;;;0.80;;
69260;SDS011;56378;52.404;20.816;2023-01-05T09:33:45;4.23;;;0.80;;
69260;SDS011;56378;52.404;20.816;2023-01-05T09:36:11;3.67;;;0.80;;
69260;SDS011;56378;52.404;20.816;2023-01-05T09:38:38;4.05;;;0.93;;
69260;SDS011;56378;52.404;20.816;2023-01-05T09:41:06;4.80;;;0.90;;
69260;SDS011;56378;52.404;20.816;2023-01-05T09:43:39;4.95;;;0.80;;
69260;SDS011;56378;52.404;20.816;2023-01-05T09:46:17;3.67;;;0.80;;
69260;SDS011;56378;52.404;20.816;2023-01-05T09:48:50;6.30;;;1.35;;
69260;SDS011;56378;52.404;20.816;2023-01-05T09:51:17;4.93;;;1.33;;
69260;SDS011;56378;52.404;20.816;2023-01-05T09:53:43;5.87;;;1.03;;
69260;SDS011;56378;52.404;20.816;2023-01-05T09:56:21;7.93;;;1.30;;
69260;SDS011;56378;52.404;20.816;2023-01-05T09:59:06;4.85;;;1.00;;
69260;SDS011;56378;52.404;20.816;2023-01-05T10:01:35;4.63;;;1.05;;
69260;SDS011;56378;52.404;20.816;2023-01-05T10:04:07;8.50;;;1.15;;
69260;SDS011;56378;52.404;20.816;2023-01-05T10:06:39;7.13;;;1.40;;
69260;SDS011;56378;52.404;20.816;2023-01-05T10:09:09;4.97;;;1.10;;
69260;SDS011;56378;52.404;20.816;2023-01-05T10:11:48;5.60;;;0.98;;
69260;SDS011;56378;52.404;20.816;2023-01-05T10:14:41;6.18;;;1.00;;
69260;SDS011;56378;52.404;20.816;2023-01-05T10:17:18;4.75;;;0.82;;
69260;SDS011;56378;52.404;20.816;2023-01-05T10:19:46;8.33;;;1.30;;
69260;SDS011;56378;52.404;20.816;2023-01-05T10:24:46;3.63;;;1.13;;
69260;SDS011;56378;52.404;20.816;2023-01-05T10:27:34;5.90;;;1.13;;
69260;SDS011;56378;52.404;20.816;2023-01-05T10:38:17;9.13;;;1.63;;
69260;SDS011;56378;52.404;20.816;2023-01-05T10:43:44;7.72;;;1.90;;
69260;SDS011;56378;52.404;20.816;2023-01-05T10:46:19;11.30;;;2.40;;
69260;SDS011;56378;52.404;20.816;2023-01-05T10:48:45;6.43;;;2.08;;
69260;SDS011;56378;52.404;20.816;2023-01-05T10:51:11;6.55;;;2.17;;
69260;SDS011;56378;52.404;20.816;2023-01-05T10:53:38;9.87;;;2.20;;
69260;SDS011;56378;52.404;20.816;2023-01-05T10:56:13;8.07;;;2.20;;
69260;SDS011;56378;52.404;20.816;2023-01-05T10:58:46;10.10;;;2.50;;
69260;SDS011;56378;52.404;20.816;2023-01-05T11:01:21;12.93;;;2.88;;
69260;SDS011;56378;52.404;20.816;2023-01-05T11:03:50;10.30;;;3.23;;
69260;SDS011;56378;52.404;20.816;2023-01-05T11:06:21;9.35;;;3.25;;
69260;SDS011;56378;52.404;20.816;2023-01-05T11:08:52;11.13;;;3.25;;
69260;SDS011;56378;52.404;20.816;2023-01-05T11:11:20;14.02;;;3.40;;
69260;SDS011;56378;52.404;20.816;2023-01-05T11:13:49;10.93;;;3.92;;
69260;SDS011;56378;52.404;20.816;2023-01-05T11:16:27;9.50;;;3.33;;
69260;SDS011;56378;52.404;20.816;2023-01-05T11:19:05;9.30;;;3.53;;
69260;SDS011;56378;52.404;20.816;2023-01-05T11:24:03;9.45;;;3.17;;
69260;SDS011;56378;52.404;20.816;2023-01-05T11:29:35;7.10;;;2.50;;
69260;SDS011;56378;52.404;20.816;2023-01-05T11:32:04;8.48;;;2.63;;
69260;SDS011;56378;52.404;20.816;2023-01-05T11:34:35;9.50;;;2.72;;
69260;SDS011;56378;52.404;20.816;2023-01-05T11:37:17;7.70;;;2.60;;
69260;SDS011;56378;52.404;20.816;2023-01-05T11:39:50;8.17;;;2.50;;
69260;SDS011;56378;52.404;20.816;2023-01-05T11:44:57;7.93;;;2.40;;
69260;SDS011;56378;52.404;20.816;2023-01-05T11:47:46;8.68;;;2.33;;
69260;SDS011;56378;52.404;20.816;2023-01-05T11:50:22;7.18;;;2.53;;
69260;SDS011;56378;52.404;20.816;2023-01-05T11:52:51;8.53;;;2.50;;
69260;SDS011;56378;52.404;20.816;2023-01-05T11:55:24;7.55;;;2.17;;
69260;SDS011;56378;52.404;20.816;2023-01-05T11:58:40;8.65;;;2.80;;
69260;SDS011;56378;52.404;20.816;2023-01-05T12:28:42;8.63;;;2.07;;
69260;SDS011;56378;52.404;20.816;2023-01-05T12:34:17;10.27;;;1.90;;
69260;SDS011;56378;52.404;20.816;2023-01-05T12:39:51;6.68;;;1.30;;
69260;SDS011;56378;52.404;20.816;2023-01-05T12:45:23;5.82;;;1.15;;
69260;SDS011;56378;52.404;20.816;2023-01-05T12:50:50;12.40;;;2.10;;
69260;SDS011;56378;52.404;20.816;2023-01-05T12:56:13;7.88;;;1.50;;
69260;SDS011;56378;52.404;20.816;2023-01-05T12:58:41;6.78;;;1.40;;
69260;SDS011;56378;52.404;20.816;2023-01-05T13:01:21;7.95;;;1.27;;
69260;SDS011;56378;52.404;20.816;2023-01-05T13:04:04;7.87;;;1.67;;
69260;SDS011;56378;52.404;20.816;2023-01-05T13:06:53;9.55;;;1.40;;
69260;SDS011;56378;52.404;20.816;2023-01-05T13:09:21;8.32;;;1.50;;
69260;SDS011;56378;52.404;20.816;2023-01-05T13:11:54;8.60;;;1.60;;
69260;SDS011;56378;52.404;20.816;2023-01-05T13:14:26;10.07;;;1.80;;
69260;SDS011;56378;52.404;20.816;2023-01-05T13:16:58;7.47;;;1.93;;
69260;SDS011;56378;52.404;20.816;2023-01-05T13:19:49;10.93;;;1.90;;
69260;SDS011;56378;52.404;20.816;2023-01-05T13:22:28;7.53;;;1.58;;
69260;SDS011;56378;52.404;20.816;2023-01-05T13:24:58;7.22;;;1.52;;
69260;SDS011;56378;52.404;20.816;2023-01-05T13:27:46;7.78;;;1.52;;
69260;SDS011;56378;52.404;20.816;2023-01-05T13:46:28;7.18;;;1.00;;
69260;SDS011;56378;52.404;20.816;2023-01-05T13:52:20;8.02;;;1.00;;
69260;SDS011;56378;52.404;20.816;2023-01-05T13:55:00;6.05;;;0.80;;
69260;SDS011;56378;52.404;20.816;2023-01-05T13:57:38;7.63;;;1.10;;
69260;SDS011;56378;52.404;20.816;2023-01-05T14:00:07;7.60;;;1.15;;
69260;SDS011;56378;52.404;20.816;2023-01-05T14:02:53;5.53;;;1.17;;
69260;SDS011;56378;52.404;20.816;2023-01-05T14:05:48;4.43;;;1.00;;
69260;SDS011;56378;52.404;20.816;2023-01-05T14:08:24;6.43;;;1.55;;
69260;SDS011;56378;52.404;20.816;2023-01-05T14:11:05;5.87;;;1.40;;
69260;SDS011;56378;52.404;20.816;2023-01-05T14:13:41;6.85;;;1.10;;
69260;SDS011;56378;52.404;20.816;2023-01-05T14:22:20;5.53;;;1.13;;
69260;SDS011;56378;52.404;20.816;2023-01-05T14:24:48;8.40;;;1.53;;
69260;SDS011;56378;52.404;20.816;2023-01-05T14:27:15;6.07;;;1.15;;
69260;SDS011;56378;52.404;20.816;2023-01-05T14:32:09;7.35;;;1.55;;
69260;SDS011;56378;52.404;20.816;2023-01-05T14:34:47;4.70;;;1.00;;
69260;SDS011;56378;52.404;20.816;2023-01-05T14:39:58;7.47;;;1.23;;
69260;SDS011;56378;52.404;20.816;2023-01-05T14:42:27;6.93;;;0.98;;
69260;SDS011;56378;52.404;20.816;2023-01-05T14:45:01;7.18;;;1.10;;
69260;SDS011;56378;52.404;20.816;2023-01-05T14:49:59;6.95;;;1.05;;
69260;SDS011;56378;52.404;20.816;2023-01-05T14:55:17;4.72;;;1.23;;
69260;SDS011;56378;52.404;20.816;2023-01-05T14:57:47;8.10;;;1.38;;
69260;SDS011;56378;52.404;20.816;2023-01-05T15:00:22;6.40;;;1.27;;
69260;SDS011;56378;52.404;20.816;2023-01-05T15:06:17;6.00;;;1.80;;
69260;SDS011;56378;52.404;20.816;2023-01-05T15:12:05;5.05;;;1.55;;
69260;SDS011;56378;52.404;20.816;2023-01-05T15:29:03;7.03;;;1.73;;
69260;SDS011;56378;52.404;20.816;2023-01-05T15:31:36;6.78;;;1.70;;
69260;SDS011;56378;52.404;20.816;2023-01-05T15:36:55;9.70;;;1.80;;
69260;SDS011;56378;52.404;20.816;2023-01-05T15:40:03;5.45;;;1.80;;
69260;SDS011;56378;52.404;20.816;2023-01-05T15:42:22;6.07;;;1.80;;
69260;SDS011;56378;52.404;20.816;2023-01-05T15:44:54;5.22;;;1.58;;
69260;SDS011;56378;52.404;20.816;2023-01-05T15:47:22;7.40;;;1.88;;
69260;SDS011;56378;52.404;20.816;2023-01-05T15:49:50;4.53;;;1.50;;
69260;SDS011;56378;52.404;20.816;2023-01-05T15:52:42;4.32;;;1.70;;
69260;SDS011;56378;52.404;20.816;2023-01-05T15:55:16;5.67;;;1.70;;
69260;SDS011;56378;52.404;20.816;2023-01-05T15:58:01;5.43;;;1.80;;
69260;SDS011;56378;52.404;20.816;2023-01-05T16:00:29;8.95;;;2.25;;
69260;SDS011;56378;52.404;20.816;2023-01-05T16:03:00;7.65;;;2.53;;
69260;SDS011;56378;52.404;20.816;2023-01-05T16:05:42;5.82;;;1.85;;
69260;SDS011;56378;52.404;20.816;2023-01-05T16:08:12;7.00;;;2.20;;
69260;SDS011;56378;52.404;20.816;2023-01-05T16:10:41;4.78;;;1.77;;
69260;SDS011;56378;52.404;20.816;2023-01-05T16:13:24;5.47;;;1.80;;
69260;SDS011;56378;52.404;20.816;2023-01-05T16:16:02;4.68;;;1.52;;
69260;SDS011;56378;52.404;20.816;2023-01-05T16:18:33;3.17;;;1.50;;
69260;SDS011;56378;52.404;20.816;2023-01-05T16:21:05;3.87;;;1.60;;
69260;SDS011;56378;52.404;20.816;2023-01-05T16:23:50;3.38;;;1.50;;
69260;SDS011;56378;52.404;20.816;2023-01-05T16:26:21;4.43;;;1.30;;
69260;SDS011;56378;52.404;20.816;2023-01-05T16:28:48;4.85;;;1.80;;
69260;SDS011;56378;52.404;20.816;2023-01-05T16:31:14;7.17;;;3.00;;
69260;SDS011;56378;52.404;20.816;2023-01-05T16:37:03;15.88;;;5.45;;
69260;SDS011;56378;52.404;20.816;2023-01-05T16:39:41;6.05;;;2.33;;
69260;SDS011;56378;52.404;20.816;2023-01-05T16:42:18;8.90;;;3.47;;
69260;SDS011;56378;52.404;20.816;2023-01-05T16:45:20;5.72;;;1.75;;
69260;SDS011;56378;52.404;20.816;2023-01-05T16:47:48;3.42;;;1.40;;
69260;SDS011;56378;52.404;20.816;2023-01-05T16:52:49;4.90;;;2.03;;
69260;SDS011;56378;52.404;20.816;2023-01-05T16:55:20;5.82;;;1.95;;
69260;SDS011;56378;52.404;20.816;2023-01-05T16:57:46;4.95;;;1.70;;
69260;SDS011;56378;52.404;20.816;2023-01-05T17:02:50;4.78;;;1.90;;
69260;SDS011;56378;52.404;20.816;2023-01-05T17:05:18;6.25;;;2.22;;
69260;SDS011;56378;52.404;20.816;2023-01-05T17:07:55;5.65;;;1.90;;
69260;SDS011;56378;52.404;20.816;2023-01-05T17:10:34;7.05;;;2.35;;
69260;SDS011;56378;52.404;20.816;2023-01-05T17:13:06;7.53;;;2.90;;
69260;SDS011;56378;52.404;20.816;2023-01-05T17:15:36;5.70;;;2.00;;
69260;SDS011;56378;52.404;20.816;2023-01-05T17:18:12;7.63;;;2.70;;
69260;SDS011;56378;52.404;20.816;2023-01-05T17:20:41;7.65;;;2.38;;
69260;SDS011;56378;52.404;20.816;2023-01-05T17:23:10;6.33;;;2.90;;